地図

経路データ

SID SEASON NUMBER BASIN SUBBASIN NAME ISO_TIME NATURE LAT LON WMO_WIND WMO_PRES WMO_AGENCY TRACK_TYPE DIST2LAND LANDFALL IFLAG USA_AGENCY USA_ATCF_ID USA_LAT USA_LON USA_RECORD USA_STATUS USA_WIND USA_PRES USA_SSHS USA_R34_NE USA_R34_SE USA_R34_SW USA_R34_NW USA_R50_NE USA_R50_SE USA_R50_SW USA_R50_NW USA_R64_NE USA_R64_SE USA_R64_SW USA_R64_NW USA_POCI USA_ROCI USA_RMW USA_EYE TOKYO_LAT TOKYO_LON TOKYO_GRADE TOKYO_WIND TOKYO_PRES TOKYO_R50_DIR TOKYO_R50_LONG TOKYO_R50_SHORT TOKYO_R30_DIR TOKYO_R30_LONG TOKYO_R30_SHORT TOKYO_LAND CMA_LAT CMA_LON CMA_CAT CMA_WIND CMA_PRES HKO_LAT HKO_LON HKO_CAT HKO_WIND HKO_PRES NEWDELHI_LAT NEWDELHI_LON NEWDELHI_GRADE NEWDELHI_WIND NEWDELHI_PRES NEWDELHI_CI NEWDELHI_DP NEWDELHI_POCI REUNION_LAT REUNION_LON REUNION_TYPE REUNION_WIND REUNION_PRES REUNION_TNUM REUNION_CI REUNION_RMW REUNION_R34_NE REUNION_R34_SE REUNION_R34_SW REUNION_R34_NW REUNION_R50_NE REUNION_R50_SE REUNION_R50_SW REUNION_R50_NW REUNION_R64_NE REUNION_R64_SE REUNION_R64_SW REUNION_R64_NW BOM_LAT BOM_LON BOM_TYPE BOM_WIND BOM_PRES BOM_TNUM BOM_CI BOM_RMW BOM_R34_NE BOM_R34_SE BOM_R34_SW BOM_R34_NW BOM_R50_NE BOM_R50_SE BOM_R50_SW BOM_R50_NW BOM_R64_NE BOM_R64_SE BOM_R64_SW BOM_R64_NW BOM_ROCI BOM_POCI BOM_EYE BOM_POS_METHOD BOM_PRES_METHOD NADI_LAT NADI_LON NADI_CAT NADI_WIND NADI_PRES WELLINGTON_LAT WELLINGTON_LON WELLINGTON_WIND WELLINGTON_PRES DS824_LAT DS824_LON DS824_STAGE DS824_WIND DS824_PRES TD9636_LAT TD9636_LON TD9636_STAGE TD9636_WIND TD9636_PRES TD9635_LAT TD9635_LON TD9635_WIND TD9635_PRES TD9635_ROCI NEUMANN_LAT NEUMANN_LON NEUMANN_CLASS NEUMANN_WIND NEUMANN_PRES MLC_LAT MLC_LON MLC_CLASS MLC_WIND MLC_PRES USA_GUST BOM_GUST BOM_GUST_PER REUNION_GUST REUNION_GUST_PER USA_SEAHGT USA_SEARAD_NE USA_SEARAD_SE USA_SEARAD_SW USA_SEARAD_NW STORM_SPEED STORM_DIR
2007300N11068 2007 77 NI AS NOT_NAMED 2007-10-27 06:00:00 TS 11.2000 68.2000 main 740 740 O_____________ jtwc_io IO052007 11.2000 68.2000 TD 25 1004 -1 5 271
2007300N11068 2007 77 NI AS NOT_NAMED 2007-10-27 09:00:00 TS 11.2025 67.9525 main 761 761 P_____________ IO052007 11.2025 67.9525 TD 25 1004 -1 5 270
2007300N11068 2007 77 NI AS NOT_NAMED 2007-10-27 12:00:00 TS 11.2000 67.7000 main 793 793 O_____________ jtwc_io IO052007 11.2000 67.7000 TD 25 1004 -1 5 269
2007300N11068 2007 77 NI AS NOT_NAMED 2007-10-27 15:00:00 TS 11.1925 67.4425 main 825 825 P_____________ IO052007 11.1925 67.4425 TD 27 1002 -1 5 270
2007300N11068 2007 77 NI AS NOT_NAMED 2007-10-27 18:00:00 TS 11.2000 67.2000 main 846 846 O_____________ jtwc_io IO052007 11.2000 67.2000 TD 30 1000 -1 5 276
2007300N11068 2007 77 NI AS NOT_NAMED 2007-10-27 21:00:00 TS 11.2425 66.9775 main 865 865 P_____________ IO052007 11.2425 66.9775 TD 35 996 0 4 284
2007300N11068 2007 77 NI AS NOT_NAMED 2007-10-28 00:00:00 TS 11.3000 66.8000 main 878 878 O_____________ jtwc_io IO052007 11.3000 66.8000 TS 40 993 0 3 290
2007300N11068 2007 77 NI AS NOT_NAMED 2007-10-28 03:00:00 TS 11.3500 66.6775 main 888 882 P_____________ IO052007 11.3500 66.6775 TS 40 993 0 2 297
2007300N11068 2007 77 NI AS NOT_NAMED 2007-10-28 06:00:00 TS 11.4000 66.6000 main 892 887 O_____________ jtwc_io IO052007 11.4000 66.6000 TS 40 993 0 2 314
2007300N11068 2007 77 NI AS NOT_NAMED 2007-10-28 09:00:00 TS 11.4725 66.5500 main 887 887 P_____________ IO052007 11.4725 66.5500 TS 40 993 0 1 317
2007300N11068 2007 77 NI AS NOT_NAMED 2007-10-28 12:00:00 TS 11.5000 66.5000 main 896 896 O_____________ jtwc_io IO052007 11.5000 66.5000 TS 40 993 0 2 254
2007300N11068 2007 77 NI AS NOT_NAMED 2007-10-28 15:00:00 TS 11.4225 66.3774 main 911 911 P_____________ IO052007 11.4225 66.3774 TS 40 993 0 3 225
2007300N11068 2007 77 NI AS NOT_NAMED 2007-10-28 18:00:00 TS 11.3000 66.3000 main 926 922 O_____________ jtwc_io IO052007 11.3000 66.3000 TS 40 993 0 2 0
2007300N11068 2007 77 NI AS NOT_NAMED 2007-10-28 21:00:00 TS 11.1850 66.3625 main 922 918 P_____________ IO052007 11.1850 66.3625 TS 40 993 0 3 135
2007300N11068 2007 77 NI AS NOT_NAMED 2007-10-29 00:00:00 TS 11.1000 66.5000 main 918 899 O_____________ jtwc_io IO052007 11.1000 66.5000 TS 40 993 0 3 110
2007300N11068 2007 77 NI AS NOT_NAMED 2007-10-29 03:00:00 TS 11.0775 66.6725 main 899 890 P_____________ IO052007 11.0775 66.6725 TS 40 993 0 3 90
2007300N11068 2007 77 NI AS NOT_NAMED 2007-10-29 06:00:00 TS 11.1000 66.8000 main 890 890 O_____________ jtwc_io IO052007 11.1000 66.8000 TS 40 993 0 1 60
2007300N11068 2007 77 NI AS NOT_NAMED 2007-10-29 09:00:00 TS 11.1425 66.7875 main 890 884 P_____________ IO052007 11.1425 66.7875 TS 37 994 0 1 317
2007300N11068 2007 77 NI AS NOT_NAMED 2007-10-29 12:00:00 TS 11.2000 66.7000 main 893 893 O_____________ jtwc_io IO052007 11.2000 66.7000 TS 35 996 0 2 306
2007300N11068 2007 77 NI AS NOT_NAMED 2007-10-29 15:00:00 TS 11.2650 66.6150 main 897 897 P_____________ IO052007 11.2650 66.6150 TS 35 996 0 2 297
2007300N11068 2007 77 NI AS NOT_NAMED 2007-10-29 18:00:00 TS 11.3000 66.5000 main 907 907 O_____________ jtwc_io IO052007 11.3000 66.5000 TS 35 996 0 2 270
2007300N11068 2007 77 NI AS NOT_NAMED 2007-10-29 21:00:00 TS 11.2650 66.3725 main 916 916 P_____________ IO052007 11.2650 66.3725 TS 32 998 -1 3 251
2007300N11068 2007 77 NI AS NOT_NAMED 2007-10-30 00:00:00 TS 11.2000 66.2000 main 941 941 O_____________ jtwc_io IO052007 11.2000 66.2000 TD 30 1000 -1 4 253
2007300N11068 2007 77 NI AS NOT_NAMED 2007-10-30 03:00:00 TS 11.1451 65.9675 main 965 965 P_____________ IO052007 11.1451 65.9675 TD 27 1002 -1 5 258
2007300N11068 2007 77 NI AS NOT_NAMED 2007-10-30 06:00:00 TS 11.1000 65.7000 main 994 O_____________ jtwc_io IO052007 11.1000 65.7000 TD 25 1004 -1 5 260

IBTrACS Databaseについて

本データベースは、米国NOAAが公開する1842年以降の世界の熱帯低気圧のベストトラックデータアーカイブInternational Best Track Archive for Climate Stewardship (IBTrACS)を、ウェブで閲覧しやすい形式に変換したものです。

最終更新日:2021-10-25